Time;durP1;ratioP1;P1;durP2;ratioP2;P2;SDS_P1;SDS_P2;PMS_P1;PMS_P2;Temp;Humidity;BMP_temperature;BMP_pressure;BME280_temperature;BME280_humidity;BME280_pressure;Samples;Min_cycle;Max_cycle;Signal;HPM_P1;HPM_P2
2022/08/14 00:02:04;;;;;;;0.40;0.40;;;21.20;70.90;;;21.58;56.22;94698.50;5038212;28;20363;-78
2022/08/14 00:04:35;;;;;;;0.40;0.40;;;21.20;70.90;;;21.61;56.44;94699.81;5043322;28;20195;-78
2022/08/14 00:07:12;;;;;;;0.40;0.40;;;21.20;70.70;;;21.65;56.60;94695.53;5026237;28;20297;-78
2022/08/14 00:09:42;;;;;;;0.40;0.40;;;21.20;70.50;;;21.68;56.17;94703.03;5021066;28;20197;-78
2022/08/14 00:12:32;;;;;;;0.40;0.40;;;21.20;70.70;;;21.72;56.59;94689.94;5034427;28;20236;-78
2022/08/14 00:15:13;;;;;;;0.40;0.40;;;21.30;70.80;;;21.75;56.53;94689.41;5015474;28;20208;-78
2022/08/14 00:17:42;;;;;;;0.50;0.50;;;21.30;71.00;;;21.77;56.30;94681.94;5054888;28;20313;-78
2022/08/14 00:20:24;;;;;;;0.40;0.40;;;21.40;70.80;;;21.82;56.35;94689.16;5052999;28;20200;-78
2022/08/14 00:22:58;;;;;;;0.40;0.40;;;21.40;70.80;;;21.85;56.26;94677.91;5025954;28;20714;-78
2022/08/14 00:25:47;;;;;;;0.40;0.40;;;21.40;70.70;;;21.86;56.36;94676.84;5017420;28;20681;-78
2022/08/14 00:28:34;;;;;;;0.50;0.50;;;21.50;70.80;;;21.90;56.55;94673.38;5038740;28;20205;-78
2022/08/14 00:31:05;;;;;;;0.40;0.40;;;21.50;70.60;;;21.93;56.20;94668.56;5038390;28;20315;-78
2022/08/14 00:33:34;;;;;;;0.40;0.40;;;21.50;70.90;;;21.94;56.23;94662.97;5039238;28;20226;-79
2022/08/14 00:36:21;;;;;;;0.40;0.40;;;21.50;70.70;;;21.96;56.38;94660.84;5041011;28;20254;-79
2022/08/14 00:39:12;;;;;;;0.40;0.40;;;21.60;70.90;;;21.90;56.38;94656.56;5039577;28;20207;-79
2022/08/14 00:41:40;;;;;;;0.40;0.40;;;21.60;71.00;;;21.96;56.31;94654.66;5055032;28;20209;-78
2022/08/14 00:44:09;;;;;;;0.38;0.38;;;21.60;70.70;;;21.95;56.37;94656.56;5053153;28;20207;-79
2022/08/14 00:46:38;;;;;;;0.30;0.30;;;21.60;70.60;;;21.95;56.82;94658.41;5040531;28;20318;-79
2022/08/14 00:49:07;;;;;;;0.40;0.40;;;21.60;71.00;;;21.95;56.51;94656.56;5022638;28;20209;-79
2022/08/14 00:51:42;;;;;;;0.30;0.30;;;21.60;71.00;;;21.94;56.78;94659.50;5030053;28;20214;-78
2022/08/14 00:54:11;;;;;;;0.40;0.40;;;21.60;71.00;;;21.90;56.46;94654.69;5025310;28;20300;-78
2022/08/14 00:56:51;;;;;;;0.30;0.30;;;21.60;70.90;;;21.91;56.88;94661.63;5009147;28;20207;-78
2022/08/14 00:59:26;;;;;;;0.40;0.40;;;21.50;70.90;;;21.92;56.41;94659.75;5039628;28;20237;-79
2022/08/14 01:01:59;;;;;;;0.40;0.40;;;21.60;71.10;;;21.87;56.70;94663.25;5023449;28;20218;-79
2022/08/14 01:04:30;;;;;;;0.40;0.40;;;21.60;71.30;;;21.90;56.75;94668.03;5039193;28;20200;-79
2022/08/14 01:07:20;;;;;;;0.40;0.40;;;21.50;71.10;;;21.89;56.85;94661.09;5032056;28;20705;-78
2022/08/14 01:09:57;;;;;;;0.40;0.40;;;21.60;71.10;;;21.90;56.96;94664.59;5022315;28;20192;-78
2022/08/14 01:12:27;;;;;;;0.40;0.40;;;21.50;71.50;;;21.88;57.03;94661.38;5024178;28;20225;-78
2022/08/14 01:15:01;;;;;;;0.40;0.40;;;21.50;71.30;;;21.89;56.80;94665.66;5045780;28;20198;-78
2022/08/14 01:23:13;;;;;;;0.40;0.40;;;21.50;71.20;;;21.84;57.24;94657.66;5036408;28;20225;-78
2022/08/14 01:25:49;;;;;;;0.30;0.30;;;21.50;71.40;;;21.83;56.99;94664.84;5024190;28;20204;-78
2022/08/14 01:28:20;;;;;;;0.40;0.40;;;21.50;71.10;;;21.82;56.94;94665.13;5054040;28;20191;-78
2022/08/14 01:31:15;;;;;;;0.50;0.50;;;21.50;71.20;;;21.79;57.17;94663.78;5039281;28;20220;-78
2022/08/14 01:33:49;;;;;;;0.35;0.35;;;21.50;71.30;;;21.79;57.47;94660.31;5040055;28;20202;-78
2022/08/14 01:36:37;;;;;;;0.40;0.40;;;21.50;71.30;;;21.77;57.09;94667.81;5010830;28;20218;-78
2022/08/14 01:39:10;;;;;;;0.40;0.40;;;21.50;71.30;;;21.76;57.23;94658.97;5054861;28;20651;-78
2022/08/14 01:41:42;;;;;;;0.50;0.50;;;21.40;71.50;;;21.73;57.11;94660.31;5022798;28;20209;-78
2022/08/14 01:44:14;;;;;;;0.40;0.40;;;21.40;71.30;;;21.71;57.55;94659.78;5008450;28;20702;-79
2022/08/14 01:47:12;;;;;;;0.50;0.50;;;21.50;71.60;;;21.71;57.25;94662.44;5051325;28;20278;-79
2022/08/14 01:49:50;;;;;;;0.40;0.40;;;21.50;71.50;;;21.69;57.40;94659.25;5053114;28;20201;-78
2022/08/14 01:52:35;;;;;;;0.30;0.30;;;21.40;71.30;;;21.67;57.35;94661.38;5049995;28;20214;-79
2022/08/14 01:55:29;;;;;;;0.40;0.40;;;21.40;71.50;;;21.63;57.71;94656.84;5035821;28;20197;-78
2022/08/14 01:57:59;;;;;;;0.40;0.40;;;21.30;72.20;;;21.62;57.80;94660.56;5018889;28;20208;-78
2022/08/14 02:00:55;;;;;;;0.40;0.40;;;21.40;71.40;;;21.59;58.05;94656.59;5035948;28;20192;-78
2022/08/14 02:03:25;;;;;;;0.40;0.40;;;21.30;71.60;;;21.58;57.94;94661.13;5012795;28;20705;-78
2022/08/14 02:05:58;;;;;;;0.40;0.40;;;21.30;72.30;;;21.58;57.52;94655.78;5013997;28;20216;-78
2022/08/14 02:08:46;;;;;;;0.30;0.30;;;21.30;71.60;;;21.55;57.54;94655.50;5014503;28;20221;-79
2022/08/14 02:11:22;;;;;;;0.40;0.40;;;21.30;71.50;;;21.57;57.58;94653.41;5035375;28;20249;-78
2022/08/14 02:14:17;;;;;;;0.35;0.35;;;21.30;71.50;;;21.56;57.94;94657.91;5023406;28;20200;-79
2022/08/14 02:16:59;;;;;;;0.30;0.30;;;21.30;72.00;;;21.55;57.84;94658.16;5048922;28;20311;-78
2022/08/14 02:19:29;;;;;;;0.40;0.40;;;21.30;71.50;;;21.54;57.74;94652.00;5029554;28;20189;-78
2022/08/14 02:22:01;;;;;;;0.30;0.30;;;21.30;71.70;;;21.55;58.14;94658.16;5029310;28;20227;-77
2022/08/14 02:24:30;;;;;;;0.40;0.40;;;21.30;71.90;;;21.50;58.81;94652.84;5030906;28;20228;-78
2022/08/14 02:27:08;;;;;;;0.40;0.40;;;21.20;71.90;;;21.48;58.87;94653.06;4994310;28;20232;-78
2022/08/14 02:29:56;;;;;;;0.40;0.40;;;21.20;71.90;;;21.43;59.24;94650.41;5000841;28;20616;-78
2022/08/14 02:32:30;;;;;;;0.32;0.32;;;21.30;72.20;;;21.38;59.01;94653.88;5032631;28;20227;-78
2022/08/14 02:35:16;;;;;;;0.40;0.40;;;21.20;72.10;;;21.31;59.68;94650.66;5034918;28;20244;-78
2022/08/14 02:37:47;;;;;;;0.40;0.40;;;21.20;72.70;;;21.29;59.63;94647.50;5035468;28;20215;-78
2022/08/14 02:40:20;;;;;;;0.35;0.35;;;21.20;72.60;;;21.24;60.27;94648.28;5019401;28;20188;-78
2022/08/14 02:43:01;;;;;;;0.40;0.40;;;21.20;72.60;;;21.20;60.25;94641.06;5030652;28;20227;-78
2022/08/14 02:45:33;;;;;;;0.30;0.30;;;21.20;72.60;;;21.17;60.51;94646.94;5001321;28;20254;-78
2022/08/14 02:48:12;;;;;;;0.40;0.40;;;21.20;72.80;;;21.14;60.08;94644.78;5019290;28;20211;-78
2022/08/14 02:51:11;;;;;;;0.40;0.40;;;21.10;72.70;;;21.09;60.56;94646.41;5018942;28;20224;-78
2022/08/14 02:53:43;;;;;;;0.50;0.50;;;21.10;72.90;;;21.07;60.17;94647.75;5034183;28;20208;-78
2022/08/14 02:56:16;;;;;;;0.40;0.40;;;21.10;72.70;;;21.04;60.23;94646.38;5064631;28;20693;-77
2022/08/14 02:59:06;;;;;;;0.38;0.38;;;21.00;73.00;;;21.01;60.68;94640.78;5044912;28;20673;-78
2022/08/14 03:01:36;;;;;;;0.40;0.40;;;21.00;72.90;;;20.95;60.63;94635.44;5066375;28;20281;-79
2022/08/14 03:04:11;;;;;;;0.40;0.40;;;20.90;72.80;;;20.93;60.31;94639.44;5035435;28;20696;-78
2022/08/14 03:06:42;;;;;;;0.40;0.40;;;20.90;73.70;;;20.92;60.84;94630.66;5052990;28;20681;-78
2022/08/14 03:09:29;;;;;;;0.40;0.40;;;20.90;72.90;;;20.89;60.56;94638.38;5027565;28;20192;-78
2022/08/14 03:12:16;;;;;;;0.40;0.40;;;20.80;72.80;;;20.88;59.83;94623.44;5040080;28;20341;-78
2022/08/14 03:15:01;;;;;;;0.40;0.40;;;20.80;72.90;;;20.88;59.99;94624.22;5053965;28;20257;-78
2022/08/14 03:17:28;;;;;;;0.40;0.40;;;20.80;72.90;;;20.89;59.91;94619.72;5065901;28;20294;-78
2022/08/14 03:20:09;;;;;;;0.40;0.40;;;20.70;72.90;;;20.91;60.15;94637.03;5033091;28;20262;-78
2022/08/14 03:22:38;;;;;;;0.40;0.40;;;20.70;72.90;;;20.92;59.52;94629.81;5053819;28;20227;-78
2022/08/14 03:25:10;;;;;;;0.30;0.30;;;20.70;73.00;;;20.92;59.54;94637.81;5053680;28;20641;-78
2022/08/14 03:27:38;;;;;;;0.40;0.40;;;20.70;73.10;;;20.93;59.82;94636.75;5026284;28;20566;-78
2022/08/14 03:30:14;;;;;;;0.45;0.45;;;20.70;73.20;;;20.92;59.35;94638.63;5003306;28;20188;-78
2022/08/14 03:32:49;;;;;;;0.40;0.40;;;20.70;73.20;;;20.95;59.83;94634.66;5017448;28;20493;-78
2022/08/14 03:35:18;;;;;;;0.40;0.40;;;20.60;73.20;;;20.94;59.47;94633.03;5050121;28;20310;-78
2022/08/14 03:37:46;;;;;;;0.40;0.40;;;20.70;73.20;;;20.95;59.25;94626.66;5043050;28;20594;-78
2022/08/14 03:40:33;;;;;;;0.40;0.40;;;20.70;73.40;;;20.99;59.23;94630.38;5018160;28;20192;-78
2022/08/14 03:43:04;;;;;;;0.43;0.43;;;20.70;73.30;;;21.01;59.90;94627.47;4999860;28;20219;-78
2022/08/14 03:45:37;;;;;;;0.40;0.40;;;20.70;73.40;;;21.04;59.40;94627.72;5033298;28;20258;-78
2022/08/14 03:48:20;;;;;;;0.40;0.40;;;20.70;73.70;;;21.04;59.68;94627.72;5066186;28;20204;-78
2022/08/14 03:50:58;;;;;;;0.30;0.30;;;20.70;73.50;;;21.07;59.57;94632.53;5013332;28;20220;-78
2022/08/14 03:53:27;;;;;;;0.40;0.40;;;20.80;73.40;;;21.08;59.23;94631.47;5011838;28;20207;-78
2022/08/14 03:56:01;;;;;;;0.40;0.40;;;20.70;73.30;;;21.11;59.92;94632.81;5015006;28;20228;-78
2022/08/14 03:58:28;;;;;;;0.40;0.40;;;20.80;73.50;;;21.11;59.94;94620.25;5028103;28;20209;-78
2022/08/14 04:01:04;;;;;;;0.30;0.30;;;20.80;73.50;;;21.14;59.33;94628.78;5028858;28;20654;-78
2022/08/14 04:03:32;;;;;;;0.40;0.40;;;20.80;73.50;;;21.16;59.46;94629.34;5030849;28;20243;-78
2022/08/14 04:06:04;;;;;;;0.40;0.40;;;20.80;73.40;;;21.19;59.28;94636.78;5032979;28;20307;-78
2022/08/14 04:08:37;;;;;;;0.40;0.40;;;20.80;73.50;;;21.18;59.72;94629.84;5014814;28;20206;-78
2022/08/14 04:11:09;;;;;;;0.40;0.40;;;20.80;73.80;;;21.22;59.30;94630.94;5048777;28;20307;-78
2022/08/14 04:13:41;;;;;;;0.40;0.40;;;20.90;73.60;;;21.22;59.48;94630.94;5049174;28;20200;-78
2022/08/14 04:16:21;;;;;;;0.40;0.40;;;20.90;73.80;;;21.24;59.82;94632.28;5048847;28;20237;-78
2022/08/14 04:18:54;;;;;;;0.30;0.30;;;20.90;73.60;;;21.27;59.39;94623.72;5046959;28;20192;-78
2022/08/14 04:21:28;;;;;;;0.40;0.40;;;20.90;73.60;;;21.30;59.93;94610.94;5015547;28;20701;-78
2022/08/14 04:23:59;;;;;;;0.35;0.35;;;20.90;73.60;;;21.31;59.51;94618.66;5048814;28;20223;-78
2022/08/14 04:26:29;;;;;;;0.40;0.40;;;21.00;73.60;;;21.31;59.75;94616.00;5030736;28;20295;-78
2022/08/14 04:29:11;;;;;;;0.40;0.40;;;21.00;73.70;;;21.32;59.77;94609.59;5060647;28;20192;-77
2022/08/14 04:31:43;;;;;;;0.40;0.40;;;21.00;73.60;;;21.35;59.52;94611.75;5031312;28;20230;-78
2022/08/14 04:34:30;;;;;;;0.43;0.43;;;21.00;73.60;;;21.36;59.51;94605.34;5048274;28;20290;-78
2022/08/14 04:45:40;;;;;;;0.40;0.40;;;21.10;73.70;;;21.46;59.64;94609.06;5045362;28;20258;-78
2022/08/14 04:48:13;;;;;;;0.40;0.40;;;21.20;73.70;;;21.48;59.89;94598.94;5043738;28;20207;-78
2022/08/14 04:51:05;;;;;;;0.40;0.40;;;21.20;73.70;;;21.52;60.07;94611.47;5038111;28;20233;-78
2022/08/14 04:53:34;;;;;;;0.47;0.47;;;21.20;73.70;;;21.56;59.78;94611.72;5028778;28;20221;-78
2022/08/14 04:56:08;;;;;;;0.40;0.40;;;21.20;73.70;;;21.58;60.33;94607.75;5033178;28;20682;-78
2022/08/14 04:59:03;;;;;;;0.40;0.40;;;21.30;73.60;;;21.62;59.75;94613.34;5039981;28;20185;-78
2022/08/14 05:01:43;;;;;;;0.30;0.30;;;21.30;73.90;;;21.64;59.71;94611.22;5012210;28;20212;-79
2022/08/14 05:04:21;;;;;;;0.40;0.40;;;21.30;73.60;;;21.69;60.05;94594.38;5016442;28;20219;-79
2022/08/14 05:06:51;;;;;;;0.40;0.40;;;21.40;73.70;;;21.75;60.04;94595.97;5059888;28;20224;-78
2022/08/14 05:09:24;;;;;;;0.40;0.40;;;21.40;73.70;;;21.79;59.61;94589.03;5030964;28;20200;-79
2022/08/14 05:11:56;;;;;;;0.40;0.40;;;21.40;73.70;;;21.83;59.58;94591.97;5059980;28;20230;-79
2022/08/14 05:14:44;;;;;;;0.40;0.40;;;21.50;73.70;;;21.87;59.73;94591.16;5025744;28;20269;-78
2022/08/14 05:17:25;;;;;;;0.40;0.40;;;21.50;73.60;;;21.92;59.70;94590.31;5057084;28;20581;-79
2022/08/14 05:20:00;;;;;;;0.40;0.40;;;21.60;73.70;;;21.99;59.85;94590.84;5045450;28;20229;-79
2022/08/14 05:22:48;;;;;;;0.43;0.43;;;21.60;73.70;;;22.05;59.46;94586.28;5032002;28;20233;-79
2022/08/14 05:25:21;;;;;;;0.40;0.40;;;21.70;73.80;;;22.14;59.68;94581.19;5015870;28;20674;-78
2022/08/14 05:27:49;;;;;;;0.40;0.40;;;21.80;73.90;;;22.20;59.63;94572.06;5013658;28;20216;-78
2022/08/14 05:30:21;;;;;;;0.40;0.40;;;21.80;74.70;;;22.29;59.63;94572.31;5049097;28;20197;-79
2022/08/14 05:32:49;;;;;;;0.30;0.30;;;21.90;73.90;;;22.34;59.66;94569.63;5063347;28;20230;-78
2022/08/14 05:35:18;;;;;;;0.30;0.30;;;22.00;73.90;;;22.46;59.48;94572.81;5064187;28;20676;-79
2022/08/14 05:37:48;;;;;;;0.30;0.30;;;22.10;73.90;;;22.57;59.75;94567.38;5047996;28;20640;-78
2022/08/14 05:40:16;;;;;;;0.40;0.40;;;22.20;73.80;;;22.64;59.47;94566.03;5014755;28;20206;-78
2022/08/14 05:42:44;;;;;;;0.38;0.38;;;22.30;73.50;;;22.73;59.31;94568.09;5064236;28;20215;-78
2022/08/14 05:45:18;;;;;;;0.40;0.40;;;22.40;73.40;;;22.78;59.21;94573.44;5026916;28;20226;-78
2022/08/14 05:47:46;;;;;;;0.40;0.40;;;22.50;73.20;;;22.82;59.05;94577.94;5011872;28;20212;-78
2022/08/14 05:50:17;;;;;;;0.40;0.40;;;22.60;73.20;;;22.86;59.03;94572.81;5029404;28;20575;-78
2022/08/14 05:52:48;;;;;;;0.38;0.38;;;22.60;73.10;;;22.92;59.02;94581.63;5033746;28;20226;-78
2022/08/14 05:55:17;;;;;;;0.40;0.40;;;22.70;73.10;;;22.97;59.27;94585.06;5034611;28;20207;-78
2022/08/14 05:58:03;;;;;;;0.40;0.40;;;22.70;73.00;;;23.02;59.22;94568.16;5042901;28;20216;-80
2022/08/14 06:00:35;;;;;;;0.25;0.25;;;22.80;73.00;;;23.11;59.19;94573.72;5025760;28;20209;-79
2022/08/14 06:03:19;;;;;;;0.38;0.38;;;22.90;73.10;;;23.21;58.73;94580.91;5027363;28;20294;-79
2022/08/14 06:05:52;;;;;;;0.50;0.50;;;22.90;73.00;;;23.29;58.70;94577.63;5032852;28;20201;-79
2022/08/14 06:08:24;;;;;;;0.40;0.40;;;23.00;72.90;;;23.37;58.36;94582.38;5023852;28;20203;-79
2022/08/14 06:11:07;;;;;;;0.40;0.40;;;23.10;72.60;;;23.43;58.63;94577.78;5005983;28;20224;-79
2022/08/14 06:13:37;;;;;;;0.40;0.40;;;23.10;72.40;;;23.51;58.58;94582.53;5040031;28;20203;-79
2022/08/14 06:16:15;;;;;;;0.40;0.40;;;23.20;72.60;;;23.57;58.23;94572.56;5035334;28;20211;-79
2022/08/14 06:18:48;;;;;;;0.30;0.30;;;23.30;72.50;;;23.61;58.35;94582.41;5016395;28;20219;-79
2022/08/14 06:21:25;;;;;;;0.40;0.40;;;23.30;72.20;;;23.67;57.89;94578.63;5060521;28;20227;-78
2022/08/14 06:23:53;;;;;;;0.50;0.50;;;23.40;72.50;;;23.62;57.93;94565.28;5059306;28;20212;-79
2022/08/14 06:26:20;;;;;;;0.50;0.50;;;23.50;72.20;;;23.71;57.78;94573.50;5056695;28;20213;-79
2022/08/14 06:28:49;;;;;;;0.30;0.30;;;23.50;71.80;;;23.75;57.52;94571.03;5039221;28;20596;-79
2022/08/14 06:31:19;;;;;;;0.40;0.40;;;23.50;71.70;;;23.75;57.67;94563.81;5026877;28;20311;-79
2022/08/14 06:33:49;;;;;;;0.30;0.30;;;23.60;71.60;;;23.78;57.25;94570.50;5039998;28;20689;-80
2022/08/14 06:36:37;;;;;;;0.30;0.30;;;23.60;71.40;;;23.80;57.50;94573.66;5001810;28;20434;-79
2022/08/14 06:39:07;;;;;;;0.30;0.30;;;23.60;71.30;;;23.79;57.16;94558.69;5015527;28;20231;-79
2022/08/14 06:41:39;;;;;;;0.40;0.40;;;23.60;71.30;;;23.85;57.22;94562.91;5048780;28;20218;-80
2022/08/14 06:44:27;;;;;;;0.30;0.30;;;23.60;71.20;;;23.87;57.07;94563.41;5019887;28;20216;-79
2022/08/14 06:47:01;;;;;;;0.40;0.40;;;23.70;71.10;;;23.91;56.81;94559.09;5000189;28;20219;-79
2022/08/14 06:49:29;;;;;;;0.40;0.40;;;23.70;71.30;;;23.95;56.83;94559.38;5038941;28;20286;-79
2022/08/14 06:52:06;;;;;;;0.50;0.50;;;23.70;71.30;;;24.01;57.01;94560.09;5010140;28;20702;-79
2022/08/14 06:54:34;;;;;;;0.30;0.30;;;23.70;71.30;;;24.06;57.29;94557.34;5034330;28;20197;-80
2022/08/14 06:57:01;;;;;;;0.35;0.35;;;23.80;71.30;;;24.16;57.01;94567.13;5017849;28;20690;-80
2022/08/14 06:59:29;;;;;;;0.40;0.40;;;23.80;71.10;;;24.21;56.87;94557.16;5012460;28;20578;-79
2022/08/14 07:07:40;;;;;;;0.30;0.30;;;24.10;71.00;;;24.43;56.57;94551.25;5028611;28;20232;-80
2022/08/14 07:10:10;;;;;;;0.30;0.30;;;24.20;71.00;;;24.55;56.81;94558.09;5026581;28;20288;-80
2022/08/14 07:12:44;;;;;;;0.30;0.30;;;24.30;70.80;;;24.64;56.27;94556.34;5004084;28;20238;-79
2022/08/14 07:15:34;;;;;;;0.40;0.40;;;24.40;70.70;;;24.71;56.27;94566.75;5025532;28;20208;-79
2022/08/14 07:18:09;;;;;;;0.30;0.30;;;24.50;70.50;;;24.76;56.02;94564.00;5054733;28;20204;-80
2022/08/14 07:20:37;;;;;;;0.28;0.28;;;24.50;70.30;;;24.81;55.69;94563.13;4998663;28;20196;-79
2022/08/14 07:23:08;;;;;;;0.30;0.30;;;24.60;70.10;;;24.86;55.62;94560.34;5029076;28;20212;-80
2022/08/14 07:25:47;;;;;;;0.40;0.40;;;24.70;70.00;;;24.91;55.31;94563.78;5043504;28;20349;-78
2022/08/14 07:28:25;;;;;;;0.30;0.30;;;24.70;69.80;;;24.97;55.42;94566.38;5000821;28;20227;-79
2022/08/14 07:30:56;;;;;;;0.30;0.30;;;24.80;69.60;;;25.00;55.17;94563.91;5013055;28;20998;-79
2022/08/14 07:33:39;;;;;;;0.50;0.50;;;24.80;69.70;;;25.06;55.38;94564.59;5041224;28;20216;-79
2022/08/14 07:36:11;;;;;;;0.22;0.22;;;24.90;69.50;;;25.07;55.15;94568.88;5013736;28;20318;-80
2022/08/14 07:38:59;;;;;;;0.30;0.30;;;25.00;69.20;;;25.06;54.82;94568.09;5004917;28;20207;-79
2022/08/14 07:41:29;;;;;;;0.30;0.30;;;25.00;69.00;;;25.07;54.95;94567.03;5015514;28;20234;-80
2022/08/14 07:43:59;;;;;;;0.30;0.30;;;25.00;69.00;;;25.05;54.96;94563.81;5014015;28;20216;-79
2022/08/14 07:46:46;;;;;;;0.50;0.50;;;25.00;68.90;;;25.01;54.57;94559.31;5033429;28;20235;-79
2022/08/14 07:49:13;;;;;;;0.25;0.25;;;24.90;68.80;;;24.99;54.91;94559.63;5015113;28;20257;-80
2022/08/14 07:51:45;;;;;;;0.30;0.30;;;24.90;68.90;;;24.94;54.98;94557.81;5017359;28;20233;-79
2022/08/14 07:54:17;;;;;;;0.30;0.30;;;24.90;68.80;;;24.93;54.92;94561.56;5046990;28;20194;-79
2022/08/14 07:56:58;;;;;;;0.30;0.30;;;24.90;68.90;;;24.93;54.95;94568.84;5016712;28;20362;-80
2022/08/14 07:59:27;;;;;;;0.30;0.30;;;24.90;68.80;;;24.90;54.86;94562.19;4998005;28;20235;-79
2022/08/14 08:02:11;;;;;;;0.30;0.30;;;24.90;68.80;;;24.89;55.26;94559.75;5017865;28;20246;-79
2022/08/14 08:04:48;;;;;;;0.30;0.30;;;24.90;69.00;;;24.96;55.06;94559.41;5013241;28;20318;-79
2022/08/14 08:07:16;;;;;;;0.30;0.30;;;24.90;69.10;;;25.02;55.13;94555.56;5046037;28;20240;-79
2022/08/14 08:09:53;;;;;;;0.38;0.38;;;24.90;69.00;;;25.09;54.89;94550.63;5019391;28;20213;-80
2022/08/14 08:12:20;;;;;;;0.40;0.40;;;25.00;68.90;;;25.17;54.76;94552.63;5022910;28;20748;-79
2022/08/14 08:14:58;;;;;;;0.30;0.30;;;25.10;69.10;;;25.32;54.80;94558.84;5032539;28;20199;-78
2022/08/14 08:17:36;;;;;;;0.20;0.20;;;25.20;69.00;;;25.43;54.96;94560.28;5025472;28;20295;-79
2022/08/14 08:20:24;;;;;;;0.40;0.40;;;25.30;68.90;;;25.54;54.40;94561.69;5048340;28;20293;-79
2022/08/14 08:22:57;;;;;;;0.50;0.50;;;25.40;68.20;;;25.64;54.45;94563.41;5063709;28;20321;-79
2022/08/14 08:25:38;;;;;;;0.50;0.50;;;25.50;68.40;;;25.77;54.33;94566.41;5015699;28;20310;-80
2022/08/14 08:28:15;;;;;;;0.30;0.30;;;25.70;68.20;;;25.88;54.13;94567.84;5029345;28;20221;-80
2022/08/14 08:31:04;;;;;;;0.30;0.30;;;25.70;67.80;;;25.92;54.03;94565.34;5015789;28;20217;-79
2022/08/14 08:33:35;;;;;;;0.28;0.28;;;25.90;67.90;;;25.96;53.61;94574.41;5061954;28;20258;-80
2022/08/14 08:36:10;;;;;;;0.30;0.30;;;25.90;67.80;;;25.98;53.09;94572.22;5016355;28;20231;-79
2022/08/14 08:38:47;;;;;;;0.30;0.30;;;26.00;67.30;;;26.02;53.61;94573.19;5039788;28;20197;-80
2022/08/14 08:41:39;;;;;;;0.20;0.20;;;26.00;67.50;;;26.07;53.60;94558.91;5024843;28;20270;-80
2022/08/14 08:44:09;;;;;;;0.20;0.20;;;26.10;67.40;;;26.11;53.28;94571.47;5040607;28;20214;-78
2022/08/14 08:46:58;;;;;;;0.30;0.30;;;26.10;67.30;;;26.09;53.02;94567.47;5042234;28;20222;-78
2022/08/14 08:49:41;;;;;;;0.30;0.30;;;26.20;67.00;;;26.07;52.56;94565.06;5015178;28;20203;-79
2022/08/14 08:52:20;;;;;;;0.30;0.30;;;26.20;66.80;;;26.02;53.07;94559.78;5037509;28;20223;-79
2022/08/14 08:54:55;;;;;;;0.30;0.30;;;26.10;66.90;;;26.04;52.96;94555.69;5021330;28;20275;-79
2022/08/14 08:57:22;;;;;;;0.30;0.30;;;26.10;66.80;;;26.06;53.32;94550.00;5003385;28;20232;-80
2022/08/14 08:59:50;;;;;;;0.30;0.30;;;26.10;67.20;;;26.15;53.41;94553.63;4998450;28;20211;-79
2022/08/14 09:02:24;;;;;;;0.30;0.30;;;26.10;67.30;;;26.23;52.84;94551.34;5060615;28;20562;-79
2022/08/14 09:05:02;;;;;;;0.30;0.30;;;26.20;67.50;;;26.37;52.87;94558.28;5032365;28;20229;-78
2022/08/14 09:07:30;;;;;;;0.30;0.30;;;26.30;67.20;;;26.43;52.93;94552.81;5020985;28;20318;-77
2022/08/14 09:09:59;;;;;;;0.30;0.30;;;26.40;67.30;;;26.53;52.83;94560.66;5060407;28;20210;-78
2022/08/14 09:12:28;;;;;;;0.20;0.20;;;26.50;66.90;;;26.56;52.31;94553.88;5044344;28;20696;-77
2022/08/14 09:15:08;;;;;;;0.30;0.30;;;26.50;66.60;;;26.53;52.44;94550.69;5048159;28;20194;-78
2022/08/14 09:17:40;;;;;;;0.30;0.30;;;26.60;66.40;;;26.55;52.56;94547.72;5037990;28;20242;-78
2022/08/14 09:20:10;;;;;;;0.30;0.30;;;26.60;66.30;;;26.56;51.98;94543.91;5063070;28;20288;-78
2022/08/14 09:22:40;;;;;;;0.30;0.30;;;26.60;66.20;;;26.59;52.10;94539.84;5027988;28;20229;-78
2022/08/14 09:25:13;;;;;;;0.25;0.25;;;26.70;66.40;;;26.66;52.13;94546.38;5014204;28;20225;-78
2022/08/14 09:27:41;;;;;;;0.20;0.20;;;26.70;66.50;;;26.76;52.67;94539.22;5029620;28;20292;-78
2022/08/14 09:30:10;;;;;;;0.20;0.20;;;26.80;66.60;;;26.87;52.44;94542.44;5016645;28;20227;-77
2022/08/14 09:33:30;;;;;;;0.20;0.20;;;26.80;66.30;;;26.93;52.31;94543.94;5038230;28;20208;-79
2022/08/14 09:36:26;;;;;;;0.30;0.30;;;27.00;66.20;;;26.98;52.02;94539.22;5043927;28;20230;-78
2022/08/14 09:39:49;;;;;;;0.28;0.28;;;27.10;65.90;;;27.03;52.03;94526.75;5032289;28;20290;-77
2022/08/14 09:42:34;;;;;;;0.30;0.30;;;27.20;66.00;;;27.11;51.85;94526.81;5034259;28;20238;-79
2022/08/14 09:45:21;;;;;;;0.30;0.30;;;27.20;65.60;;;27.21;51.73;94527.66;5015565;28;20234;-77
2022/08/14 09:47:56;;;;;;;0.30;0.30;;;27.30;65.80;;;27.25;52.00;94528.66;5040670;28;20229;-78
2022/08/14 09:50:31;;;;;;;0.30;0.30;;;27.40;65.50;;;27.25;51.31;94520.56;5007268;28;20211;-79
2022/08/14 09:53:04;;;;;;;0.38;0.38;;;27.40;65.10;;;27.23;51.56;94520.84;5022658;28;20290;-79
2022/08/14 09:55:34;;;;;;;0.40;0.40;;;27.40;65.00;;;27.25;51.01;94517.88;5031573;28;20204;-78
2022/08/14 09:58:15;;;;;;;0.30;0.30;;;27.40;65.00;;;27.22;50.63;94513.91;5035201;28;20200;-77
2022/08/14 10:01:00;;;;;;;0.20;0.20;;;27.40;64.70;;;27.16;50.58;94507.84;5047842;28;20224;-79
2022/08/14 10:03:35;;;;;;;0.40;0.40;;;27.30;64.80;;;27.11;50.87;94510.66;5028048;28;20234;-79
2022/08/14 10:06:10;;;;;;;0.30;0.30;;;27.30;64.70;;;27.07;50.87;94504.28;5023884;28;20243;-78
2022/08/14 10:08:51;;;;;;;0.30;0.30;;;27.30;64.60;;;27.07;51.24;94493.50;5024578;28;20294;-79
2022/08/14 10:11:29;;;;;;;0.30;0.30;;;27.20;64.80;;;27.09;50.72;94495.91;5030963;28;20249;-79
2022/08/14 10:14:20;;;;;;;0.30;0.30;;;27.20;64.70;;;27.17;51.26;94489.78;5005138;28;20207;-79
2022/08/14 10:17:04;;;;;;;0.38;0.38;;;27.20;64.80;;;27.34;51.08;94494.47;5030160;28;20278;-79
2022/08/14 10:19:34;;;;;;;0.30;0.30;;;27.30;65.10;;;27.51;51.13;94491.09;5033221;28;20221;-79
2022/08/14 10:22:09;;;;;;;0.30;0.30;;;27.50;65.20;;;27.67;50.62;94490.69;5020037;28;20615;-79
2022/08/14 10:24:57;;;;;;;0.40;0.40;;;27.60;64.60;;;27.76;50.38;94484.22;5031597;28;20591;-78
2022/08/14 10:27:26;;;;;;;0.30;0.30;;;27.80;64.60;;;27.80;49.78;94487.88;5033301;28;20300;-79
2022/08/14 10:30:00;;;;;;;0.30;0.30;;;27.90;64.20;;;27.81;50.09;94491.38;5051998;28;20618;-79
2022/08/14 10:32:28;;;;;;;0.38;0.38;;;27.90;63.80;;;27.83;49.71;94482.97;5014462;28;20568;-79
2022/08/14 10:35:16;;;;;;;0.30;0.30;;;28.00;63.80;;;27.84;49.98;94490.75;5014227;28;20210;-78
2022/08/14 10:37:52;;;;;;;0.20;0.20;;;28.00;63.80;;;27.94;49.74;94493.16;5014940;28;20226;-78
2022/08/14 10:40:31;;;;;;;0.32;0.32;;;28.00;64.00;;;28.06;50.45;94484.53;4998158;28;20202;-79
2022/08/14 10:43:24;;;;;;;0.25;0.25;;;28.10;64.00;;;28.20;49.82;94491.69;5056363;28;20201;-79
2022/08/14 10:46:01;;;;;;;0.30;0.30;;;28.20;63.90;;;28.26;48.95;94488.50;5021615;28;20332;-78
2022/08/14 10:49:01;;;;;;;0.20;0.20;;;28.30;63.50;;;28.31;48.79;94489.47;5050756;28;20275;-79
2022/08/14 10:51:33;;;;;;;0.30;0.30;;;28.40;63.50;;;28.27;49.39;94481.19;5019238;28;20241;-78
2022/08/14 10:54:09;;;;;;;0.30;0.30;;;28.40;63.50;;;28.25;49.75;94489.63;4999397;28;20210;-79
2022/08/14 10:57:15;;;;;;;0.20;0.20;;;28.40;63.70;;;28.19;49.63;94485.47;5030962;28;20223;-79
2022/08/14 10:59:49;;;;;;;0.20;0.20;;;28.40;63.60;;;28.16;49.64;94488.00;5044910;28;20857;-79
2022/08/14 11:02:33;;;;;;;0.38;0.38;;;28.40;63.60;;;28.09;49.75;94483.09;4997125;28;20322;-79
2022/08/14 11:05:22;;;;;;;0.30;0.30;;;28.30;63.60;;;28.01;49.46;94486.53;5002742;28;20234;-79
2022/08/14 11:07:56;;;;;;;0.30;0.30;;;28.20;63.80;;;27.96;50.01;94492.84;5020892;28;20218;-78
2022/08/14 11:10:59;;;;;;;0.30;0.30;;;28.20;63.80;;;27.88;50.06;94496.31;5032589;28;20583;-79
2022/08/14 11:13:29;;;;;;;0.30;0.30;;;28.00;63.90;;;27.86;49.66;94493.94;5042642;28;20212;-79
2022/08/14 11:15:59;;;;;;;0.30;0.30;;;28.00;63.80;;;27.84;50.18;94482.66;5044052;28;20221;-79
2022/08/14 11:18:29;;;;;;;0.30;0.30;;;27.90;63.80;;;27.85;50.12;94486.94;5065891;28;20617;-79
2022/08/14 11:21:06;;;;;;;0.25;0.25;;;27.90;64.00;;;27.89;49.79;94482.53;5032823;28;20688;-79